Nanticoke — WDC4353 — position and weather

sailwx.info

Track history (hours):
 
Tides and Currents Weather Stations Pressure Air Temp Water Temp Dewpoint Dewpoint Depression Visibility Wind Speed Wind Dir Waves Ship Positions

Nanticoke

Owner: Vane Line Bunkering, Baltimore, MD. More information available from US FCC via Universal Licensing System and Coast Guard Vessel Documentation Center.

Last reported at 2016-Dec-07 15:34 UTC. Time now 2016-Dec-07 16:23 UTC.
Position N 42°21' W 071°02'.

Length 34 m; draft 4.7 m.

Type: Towing. MMSI: 367023480.

Date/timePositionNaut miles runAvg speedWind from/ knotsBaromVisibWave heightAir tempDewpointWater temp
2016-Dec-07 15:34N 42°21' W 071°02'0 0.0
2016-Dec-07 14:34N 42°21' W 071°02'0 0.0
2016-Dec-07 13:34N 42°21' W 071°02'0 0.1
2016-Dec-07 12:34N 42°21' W 071°02'0 0.0
2016-Dec-07 11:34N 42°21' W 071°02'0 0.1
2016-Dec-07 10:34N 42°21' W 071°02'0 0.0
2016-Dec-07 09:34N 42°21' W 071°02'0 0.0
2016-Dec-07 08:34N 42°21' W 071°02'0 0.0
2016-Dec-07 07:34N 42°21' W 071°02'0 0.0
2016-Dec-07 06:34N 42°21' W 071°02'0 0.0
2016-Dec-07 05:34N 42°21' W 071°02'0 0.1
2016-Dec-07 04:34N 42°21' W 071°02'0 0.0
2016-Dec-07 03:33N 42°21' W 071°02'2 1.9
2016-Dec-07 02:33N 42°23' W 071°01'0 0.0
2016-Dec-07 01:34N 42°23' W 071°02'0 0.0
2016-Dec-07 00:34N 42°23' W 071°02'0 0.0
2016-Dec-06 23:34N 42°23' W 071°02'0 0.0
2016-Dec-06 22:34N 42°23' W 071°02'0 0.0
2016-Dec-06 21:34N 42°23' W 071°02'0 0.0
2016-Dec-06 20:34N 42°23' W 071°02'0 0.0
2016-Dec-06 18:34N 42°23' W 071°02'0 0.0
2016-Dec-06 17:34N 42°23' W 071°02'0 0.0
2016-Dec-06 16:34N 42°23' W 071°02'0 0.0
2016-Dec-06 15:34N 42°23' W 071°02'0 0.0
2016-Dec-06 14:34N 42°23' W 071°02'0 0.0
2016-Dec-06 13:34N 42°23' W 071°02'3 3.4
2016-Dec-06 12:34N 42°20' W 070°59'0 0.2
2016-Dec-06 11:34N 42°20' W 070°58'0 0.0
2016-Dec-06 10:33N 42°20' W 070°58'0 0.0
2016-Dec-06 09:33N 42°20' W 070°58'0 0.0
2016-Dec-06 08:34N 42°20' W 070°58'0 0.1
2016-Dec-06 07:33N 42°20' W 070°59'6 6.2
2016-Dec-06 06:34N 42°23' W 070°51'8 8.2
2016-Dec-06 05:33N 42°17' W 070°43'8 8.0
2016-Dec-06 04:33N 42°10' W 070°38'171 6.3
2016-Dec-05 01:19N 40°29' W 073°42'6 7.0
2016-Dec-05 00:29N 40°25' W 073°47'6 7.0
2016-Dec-04 23:33N 40°20' W 073°53'23 7.1
2016-Dec-04 20:17N 39°57' W 073°56'5 7.1
2016-Dec-04 19:33N 39°51' W 073°57'7 7.0
2016-Dec-04 18:33N 39°45' W 073°59'7 6.9
2016-Dec-04 17:33N 39°39' W 074°03'7 7.0
2016-Dec-04 16:33N 39°33' W 074°08'7 6.9
2016-Dec-04 15:33N 39°26' W 074°12'52 5.6
2016-Dec-04 06:12N 38°55' W 075°05'5 7.1
2016-Dec-04 05:32N 38°59' W 075°08'6 6.5
2016-Dec-04 04:33N 39°05' W 075°12'6 5.7
2016-Dec-04 03:34N 39°10' W 075°15'6 5.6
2016-Dec-04 02:34N 39°15' W 075°19'6 6.3
2016-Dec-04 01:34N 39°19' W 075°25'7 6.7
2016-Dec-04 00:34N 39°24' W 075°30'6 6.5
2016-Dec-03 23:33N 39°31' W 075°33'7 6.7
2016-Dec-03 22:34N 39°37' W 075°35'7 6.9
2016-Dec-03 21:34N 39°43' W 075°30'6 5.9
2016-Dec-03 20:34N 39°48' W 075°26'2 1.5
2016-Dec-03 19:34N 39°49' W 075°24'4 4.5
2016-Dec-03 18:34N 39°51' W 075°19'7 7.2
2016-Dec-03 17:34N 39°53' W 075°10'1 0.6
2016-Dec-03 16:33N 39°53' W 075°11'1 0.7
2016-Dec-03 15:34N 39°53' W 075°12'0 0.0
2016-Dec-03 14:34N 39°53' W 075°12'0 0.0
2016-Dec-03 13:33N 39°53' W 075°12'0 0.0
2016-Dec-03 12:33N 39°53' W 075°12'0 0.0
2016-Dec-03 11:33N 39°53' W 075°12'0 0.0
2016-Dec-03 10:33N 39°53' W 075°12'0 0.0
2016-Dec-03 09:33N 39°53' W 075°12'0 0.0
2016-Dec-03 08:33N 39°53' W 075°12'0 0.0
2016-Dec-03 07:33N 39°53' W 075°12'0 0.0
2016-Dec-03 06:33N 39°53' W 075°12'0 0.0
2016-Dec-03 05:33N 39°53' W 075°12'0 0.0
2016-Dec-03 04:33N 39°53' W 075°12'0 0.0
2016-Dec-03 03:33N 39°53' W 075°12'0 0.0
2016-Dec-03 02:33N 39°53' W 075°12'0 0.0
2016-Dec-03 01:33N 39°53' W 075°12'1 0.6
2016-Dec-03 00:33N 39°54' W 075°12'1 1.4
2016-Dec-02 23:33N 39°52' W 075°13'8 7.9
2016-Dec-02 22:33N 39°50' W 075°22'3 2.8
2016-Dec-02 21:33N 39°48' W 075°25'1 1.0
2016-Dec-02 20:33N 39°48' W 075°24'1 0.6
2016-Dec-02 19:33N 39°49' W 075°23'0 0.0
2016-Dec-02 18:33N 39°49' W 075°23'0 0.0
2016-Dec-02 17:33N 39°49' W 075°23'0 0.0
2016-Dec-02 16:33N 39°49' W 075°23'0 0.0
2016-Dec-02 15:33N 39°49' W 075°23'0 0.0
2016-Dec-02 14:33N 39°49' W 075°23'0 0.4
2016-Dec-02 13:33N 39°49' W 075°24'0 0.1
2016-Dec-02 12:33N 39°49' W 075°24'1 1.0
2016-Dec-02 11:33N 39°49' W 075°23'9 8.5
2016-Dec-02 10:33N 39°52' W 075°13'2 2.4
2016-Dec-02 09:33N 39°55' W 075°13'0 0.0
2016-Dec-02 08:33N 39°55' W 075°13'0 0.0
2016-Dec-02 07:33N 39°55' W 075°13'0 0.0
2016-Dec-02 06:33N 39°55' W 075°13'0 0.0
2016-Dec-02 05:33N 39°55' W 075°13'0 0.0
2016-Dec-02 04:33N 39°55' W 075°13'0 0.0
2016-Dec-02 03:33N 39°55' W 075°13'0 0.0
2016-Dec-02 02:33N 39°55' W 075°13'0 0.0
2016-Dec-02 01:33N 39°55' W 075°13'0 0.0
2016-Dec-02 00:33N 39°55' W 075°13'1 1.0
2016-Dec-01 23:34N 39°54' W 075°12'0 0.0
2016-Dec-01 22:33N 39°54' W 075°12'0 0.0
2016-Dec-01 21:33N 39°54' W 075°12'0 0.0
2016-Dec-01 20:33N 39°54' W 075°12'0 0.0
2016-Dec-01 19:33N 39°54' W 075°12'0 0.0
2016-Dec-01 18:33N 39°54' W 075°12'0 0.0
2016-Dec-01 17:33N 39°54' W 075°12'0 0.0
2016-Dec-01 16:33N 39°54' W 075°12'1 0.6
2016-Dec-01 15:33N 39°53' W 075°12'2 2.0
2016-Dec-01 14:33N 39°52' W 075°13'0 0.1
2016-Dec-01 13:33N 39°52' W 075°13'0 0.0
2016-Dec-01 12:33N 39°52' W 075°13'0 0.0
2016-Dec-01 11:33N 39°52' W 075°13'0 0.0
2016-Dec-01 10:33N 39°52' W 075°13'0 0.0
2016-Dec-01 09:33N 39°52' W 075°13'0 0.2
2016-Dec-01 08:33N 39°52' W 075°13'1 1.2
2016-Dec-01 07:33N 39°51' W 075°14'8 8.0
2016-Dec-01 06:33N 39°49' W 075°24'0 0.0
2016-Dec-01 05:33N 39°49' W 075°24'0 0.0
2016-Dec-01 04:33N 39°49' W 075°24'0 0.0
2016-Dec-01 03:33N 39°49' W 075°24'0 0.0
2016-Dec-01 02:33N 39°49' W 075°24'0 0.0
2016-Dec-01 01:33N 39°49' W 075°24'0 0.0
2016-Dec-01 00:33N 39°49' W 075°24'0 0.0
2016-Nov-30 23:33N 39°49' W 075°24'0 0.0
2016-Nov-30 22:33N 39°49' W 075°24'0 0.0
2016-Nov-30 21:33N 39°49' W 075°24'0 0.0
2016-Nov-30 20:33N 39°49' W 075°24'0 0.0
2016-Nov-30 19:33N 39°49' W 075°24'0 0.0
2016-Nov-30 18:33N 39°49' W 075°24'0 0.0
2016-Nov-30 17:33N 39°49' W 075°24'0 0.4
2016-Nov-30 16:33N 39°48' W 075°24'0 0.0
2016-Nov-30 15:33N 39°48' W 075°24'0 0.0
2016-Nov-30 14:33N 39°48' W 075°24'0 0.2
2016-Nov-30 13:33N 39°48' W 075°25'0 0.1
2016-Nov-30 12:33N 39°48' W 075°25'1 0.7
2016-Nov-30 11:33N 39°48' W 075°25'0 0.0
2016-Nov-30 10:33N 39°48' W 075°25'0 0.0
2016-Nov-30 09:33N 39°48' W 075°25'0 0.0
2016-Nov-30 08:33N 39°48' W 075°25'0 0.0
2016-Nov-30 07:33N 39°48' W 075°25'0 0.2
2016-Nov-30 06:33N 39°48' W 075°25'0 0.0
2016-Nov-30 05:33N 39°48' W 075°25'0 0.0
2016-Nov-30 04:33N 39°48' W 075°25'0 0.0
2016-Nov-30 03:33N 39°48' W 075°25'0 0.0
2016-Nov-30 02:33N 39°48' W 075°25'0 0.2
2016-Nov-30 01:33N 39°48' W 075°25'0 0.0
2016-Nov-30 00:33N 39°48' W 075°25'0 0.0
2016-Nov-29 23:33N 39°48' W 075°25'0 0.0
2016-Nov-29 22:33N 39°48' W 075°25'0 0.0
2016-Nov-29 21:33N 39°48' W 075°25'0 0.1
2016-Nov-29 20:33N 39°48' W 075°25'0 0.0
2016-Nov-29 19:33N 39°48' W 075°25'0 0.2
2016-Nov-29 18:33N 39°48' W 075°25'0 0.1
2016-Nov-29 17:33N 39°48' W 075°25'0 0.0
2016-Nov-29 16:33N 39°48' W 075°25'0 0.0
2016-Nov-29 15:33N 39°48' W 075°25'0 0.0
2016-Nov-29 14:33N 39°48' W 075°25'0 0.0
2016-Nov-29 13:33N 39°48' W 075°25'0 0.2
2016-Nov-29 12:33N 39°48' W 075°25'0 0.0
2016-Nov-29 11:33N 39°48' W 075°25'0 0.0
2016-Nov-29 10:33N 39°48' W 075°25'0 0.0
2016-Nov-29 09:33N 39°48' W 075°25'0 0.0
2016-Nov-29 08:33N 39°48' W 075°25'0 0.1
2016-Nov-29 07:33N 39°48' W 075°25'0 0.0
2016-Nov-29 06:33N 39°48' W 075°25'0 0.2
2016-Nov-29 05:33N 39°48' W 075°25'0 0.0
2016-Nov-29 04:33N 39°48' W 075°25'0 0.0
2016-Nov-29 03:33N 39°48' W 075°25'0 0.0
2016-Nov-29 02:33N 39°48' W 075°25'0 0.0
2016-Nov-29 01:33N 39°48' W 075°25'7 7.2
2016-Nov-29 00:33N 39°51' W 075°17'5 4.5
2016-Nov-28 23:33N 39°53' W 075°12'1 0.6
2016-Nov-28 22:33N 39°54' W 075°12'0 0.0
2016-Nov-28 21:33N 39°54' W 075°12'0 0.0
2016-Nov-28 20:33N 39°54' W 075°12'0 0.0
2016-Nov-28 19:33N 39°54' W 075°12'0 0.0
2016-Nov-28 18:33N 39°54' W 075°12'0 0.0
2016-Nov-28 17:33N 39°54' W 075°12'0 0.0
2016-Nov-28 16:33N 39°54' W 075°12'1 0.6
2016-Nov-28 15:33N 39°53' W 075°12'9 9.4
2016-Nov-28 14:33N 39°49' W 075°23'1111.1
2016-Nov-28 13:33N 39°41' W 075°31'9 8.7
2016-Nov-28 12:33N 39°33' W 075°37'1010.4
2016-Nov-28 11:33N 39°32' W 075°51'1010.0
2016-Nov-28 10:33N 39°26' W 076°01'4 3.9
2016-Nov-28 09:33N 39°23' W 076°05'8 7.8
2016-Nov-28 08:33N 39°29' W 075°57'8 8.5
2016-Nov-28 07:33N 39°32' W 075°47'9 8.9
2016-Nov-28 06:33N 39°33' W 075°36'7 7.2
2016-Nov-28 05:33N 39°40' W 075°32'9 8.7
2016-Nov-28 04:33N 39°48' W 075°27'7 7.4
2016-Nov-28 03:33N 39°51' W 075°18'5 5.1
2016-Nov-28 02:33N 39°54' W 075°12'0 0.0
2016-Nov-28 01:33N 39°54' W 075°12'0 0.0
2016-Nov-28 00:33N 39°54' W 075°12'0 0.1
2016-Nov-27 23:33N 39°54' W 075°12'0 0.0
2016-Nov-27 22:33N 39°54' W 075°12'0 0.1
2016-Nov-27 21:33N 39°54' W 075°12'6 5.8
2016-Nov-27 20:33N 39°51' W 075°19'7 7.0
2016-Nov-27 19:33N 39°47' W 075°27'5 5.5
2016-Nov-27 18:33N 39°43' W 075°31'0 0.0
2016-Nov-27 17:33N 39°43' W 075°31'0 0.0
2016-Nov-27 16:33N 39°43' W 075°31'  
Track history (hours):
 
Tides and Currents Weather Stations Pressure Air Temp Water Temp Dewpoint Dewpoint Depression Visibility Wind Speed Wind Dir Waves Ship Positions

Nanticoke

Owner: Vane Line Bunkering, Baltimore, MD. More information available from US FCC via Universal Licensing System and Coast Guard Vessel Documentation Center.

Last reported at 2016-Dec-07 15:34 UTC. Time now 2016-Dec-07 16:23 UTC.
Position N 42°21' W 071°02'.

Length 34 m; draft 4.7 m.

Type: Towing. MMSI: 367023480.

Date/timePositionNaut miles runAvg speedWind from/ knotsBaromVisibWave heightAir tempDewpointWater temp
2016-Dec-07 15:34N 42°21' W 071°02'0 0.0
2016-Dec-07 14:34N 42°21' W 071°02'0 0.0
2016-Dec-07 13:34N 42°21' W 071°02'0 0.1
2016-Dec-07 12:34N 42°21' W 071°02'0 0.0
2016-Dec-07 11:34N 42°21' W 071°02'0 0.1
2016-Dec-07 10:34N 42°21' W 071°02'0 0.0
2016-Dec-07 09:34N 42°21' W 071°02'0 0.0
2016-Dec-07 08:34N 42°21' W 071°02'0 0.0
2016-Dec-07 07:34N 42°21' W 071°02'0 0.0
2016-Dec-07 06:34N 42°21' W 071°02'0 0.0
2016-Dec-07 05:34N 42°21' W 071°02'0 0.1
2016-Dec-07 04:34N 42°21' W 071°02'0 0.0
2016-Dec-07 03:33N 42°21' W 071°02'2 1.9
2016-Dec-07 02:33N 42°23' W 071°01'0 0.0
2016-Dec-07 01:34N 42°23' W 071°02'0 0.0
2016-Dec-07 00:34N 42°23' W 071°02'0 0.0
2016-Dec-06 23:34N 42°23' W 071°02'0 0.0
2016-Dec-06 22:34N 42°23' W 071°02'0 0.0
2016-Dec-06 21:34N 42°23' W 071°02'0 0.0
2016-Dec-06 20:34N 42°23' W 071°02'0 0.0
2016-Dec-06 18:34N 42°23' W 071°02'0 0.0
2016-Dec-06 17:34N 42°23' W 071°02'0 0.0
2016-Dec-06 16:34N 42°23' W 071°02'0 0.0
2016-Dec-06 15:34N 42°23' W 071°02'0 0.0
2016-Dec-06 14:34N 42°23' W 071°02'0 0.0
2016-Dec-06 13:34N 42°23' W 071°02'3 3.4
2016-Dec-06 12:34N 42°20' W 070°59'0 0.2
2016-Dec-06 11:34N 42°20' W 070°58'0 0.0
2016-Dec-06 10:33N 42°20' W 070°58'0 0.0
2016-Dec-06 09:33N 42°20' W 070°58'0 0.0
2016-Dec-06 08:34N 42°20' W 070°58'0 0.1
2016-Dec-06 07:33N 42°20' W 070°59'6 6.2
2016-Dec-06 06:34N 42°23' W 070°51'8 8.2
2016-Dec-06 05:33N 42°17' W 070°43'8 8.0
2016-Dec-06 04:33N 42°10' W 070°38'171 6.3
2016-Dec-05 01:19N 40°29' W 073°42'6 7.0
2016-Dec-05 00:29N 40°25' W 073°47'6 7.0
2016-Dec-04 23:33N 40°20' W 073°53'23 7.1
2016-Dec-04 20:17N 39°57' W 073°56'5 7.1
2016-Dec-04 19:33N 39°51' W 073°57'7 7.0
2016-Dec-04 18:33N 39°45' W 073°59'7 6.9
2016-Dec-04 17:33N 39°39' W 074°03'7 7.0
2016-Dec-04 16:33N 39°33' W 074°08'7 6.9
2016-Dec-04 15:33N 39°26' W 074°12'52 5.6
2016-Dec-04 06:12N 38°55' W 075°05'5 7.1
2016-Dec-04 05:32N 38°59' W 075°08'6 6.5
2016-Dec-04 04:33N 39°05' W 075°12'6 5.7
2016-Dec-04 03:34N 39°10' W 075°15'6 5.6
2016-Dec-04 02:34N 39°15' W 075°19'6 6.3
2016-Dec-04 01:34N 39°19' W 075°25'7 6.7
2016-Dec-04 00:34N 39°24' W 075°30'6 6.5
2016-Dec-03 23:33N 39°31' W 075°33'7 6.7
2016-Dec-03 22:34N 39°37' W 075°35'7 6.9
2016-Dec-03 21:34N 39°43' W 075°30'6 5.9
2016-Dec-03 20:34N 39°48' W 075°26'2 1.5
2016-Dec-03 19:34N 39°49' W 075°24'4 4.5
2016-Dec-03 18:34N 39°51' W 075°19'7 7.2
2016-Dec-03 17:34N 39°53' W 075°10'1 0.6
2016-Dec-03 16:33N 39°53' W 075°11'1 0.7
2016-Dec-03 15:34N 39°53' W 075°12'0 0.0
2016-Dec-03 14:34N 39°53' W 075°12'0 0.0
2016-Dec-03 13:33N 39°53' W 075°12'0 0.0
2016-Dec-03 12:33N 39°53' W 075°12'0 0.0
2016-Dec-03 11:33N 39°53' W 075°12'0 0.0
2016-Dec-03 10:33N 39°53' W 075°12'0 0.0
2016-Dec-03 09:33N 39°53' W 075°12'0 0.0
2016-Dec-03 08:33N 39°53' W 075°12'0 0.0
2016-Dec-03 07:33N 39°53' W 075°12'0 0.0
2016-Dec-03 06:33N 39°53' W 075°12'0 0.0
2016-Dec-03 05:33N 39°53' W 075°12'0 0.0
2016-Dec-03 04:33N 39°53' W 075°12'0 0.0
2016-Dec-03 03:33N 39°53' W 075°12'0 0.0
2016-Dec-03 02:33N 39°53' W 075°12'0 0.0
2016-Dec-03 01:33N 39°53' W 075°12'1 0.6
2016-Dec-03 00:33N 39°54' W 075°12'1 1.4
2016-Dec-02 23:33N 39°52' W 075°13'8 7.9
2016-Dec-02 22:33N 39°50' W 075°22'3 2.8
2016-Dec-02 21:33N 39°48' W 075°25'1 1.0
2016-Dec-02 20:33N 39°48' W 075°24'1 0.6
2016-Dec-02 19:33N 39°49' W 075°23'0 0.0
2016-Dec-02 18:33N 39°49' W 075°23'0 0.0
2016-Dec-02 17:33N 39°49' W 075°23'0 0.0
2016-Dec-02 16:33N 39°49' W 075°23'0 0.0
2016-Dec-02 15:33N 39°49' W 075°23'0 0.0
2016-Dec-02 14:33N 39°49' W 075°23'0 0.4
2016-Dec-02 13:33N 39°49' W 075°24'0 0.1
2016-Dec-02 12:33N 39°49' W 075°24'1 1.0
2016-Dec-02 11:33N 39°49' W 075°23'9 8.5
2016-Dec-02 10:33N 39°52' W 075°13'2 2.4
2016-Dec-02 09:33N 39°55' W 075°13'0 0.0
2016-Dec-02 08:33N 39°55' W 075°13'0 0.0
2016-Dec-02 07:33N 39°55' W 075°13'0 0.0
2016-Dec-02 06:33N 39°55' W 075°13'0 0.0
2016-Dec-02 05:33N 39°55' W 075°13'0 0.0
2016-Dec-02 04:33N 39°55' W 075°13'0 0.0
2016-Dec-02 03:33N 39°55' W 075°13'0 0.0
2016-Dec-02 02:33N 39°55' W 075°13'0 0.0
2016-Dec-02 01:33N 39°55' W 075°13'0 0.0
2016-Dec-02 00:33N 39°55' W 075°13'1 1.0
2016-Dec-01 23:34N 39°54' W 075°12'0 0.0
2016-Dec-01 22:33N 39°54' W 075°12'0 0.0
2016-Dec-01 21:33N 39°54' W 075°12'0 0.0
2016-Dec-01 20:33N 39°54' W 075°12'0 0.0
2016-Dec-01 19:33N 39°54' W 075°12'0 0.0
2016-Dec-01 18:33N 39°54' W 075°12'0 0.0
2016-Dec-01 17:33N 39°54' W 075°12'0 0.0
2016-Dec-01 16:33N 39°54' W 075°12'1 0.6
2016-Dec-01 15:33N 39°53' W 075°12'2 2.0
2016-Dec-01 14:33N 39°52' W 075°13'0 0.1
2016-Dec-01 13:33N 39°52' W 075°13'0 0.0
2016-Dec-01 12:33N 39°52' W 075°13'0 0.0
2016-Dec-01 11:33N 39°52' W 075°13'0 0.0
2016-Dec-01 10:33N 39°52' W 075°13'0 0.0
2016-Dec-01 09:33N 39°52' W 075°13'0 0.2
2016-Dec-01 08:33N 39°52' W 075°13'1 1.2
2016-Dec-01 07:33N 39°51' W 075°14'8 8.0
2016-Dec-01 06:33N 39°49' W 075°24'0 0.0
2016-Dec-01 05:33N 39°49' W 075°24'0 0.0
2016-Dec-01 04:33N 39°49' W 075°24'0 0.0
2016-Dec-01 03:33N 39°49' W 075°24'0 0.0
2016-Dec-01 02:33N 39°49' W 075°24'0 0.0
2016-Dec-01 01:33N 39°49' W 075°24'0 0.0
2016-Dec-01 00:33N 39°49' W 075°24'0 0.0
2016-Nov-30 23:33N 39°49' W 075°24'0 0.0
2016-Nov-30 22:33N 39°49' W 075°24'0 0.0
2016-Nov-30 21:33N 39°49' W 075°24'0 0.0
2016-Nov-30 20:33N 39°49' W 075°24'0 0.0
2016-Nov-30 19:33N 39°49' W 075°24'0 0.0
2016-Nov-30 18:33N 39°49' W 075°24'0 0.0
2016-Nov-30 17:33N 39°49' W 075°24'0 0.4
2016-Nov-30 16:33N 39°48' W 075°24'0 0.0
2016-Nov-30 15:33N 39°48' W 075°24'0 0.0
2016-Nov-30 14:33N 39°48' W 075°24'0 0.2
2016-Nov-30 13:33N 39°48' W 075°25'0 0.1
2016-Nov-30 12:33N 39°48' W 075°25'1 0.7
2016-Nov-30 11:33N 39°48' W 075°25'0 0.0
2016-Nov-30 10:33N 39°48' W 075°25'0 0.0
2016-Nov-30 09:33N 39°48' W 075°25'0 0.0
2016-Nov-30 08:33N 39°48' W 075°25'0 0.0
2016-Nov-30 07:33N 39°48' W 075°25'0 0.2
2016-Nov-30 06:33N 39°48' W 075°25'0 0.0
2016-Nov-30 05:33N 39°48' W 075°25'0 0.0
2016-Nov-30 04:33N 39°48' W 075°25'0 0.0
2016-Nov-30 03:33N 39°48' W 075°25'0 0.0
2016-Nov-30 02:33N 39°48' W 075°25'0 0.2
2016-Nov-30 01:33N 39°48' W 075°25'0 0.0
2016-Nov-30 00:33N 39°48' W 075°25'0 0.0
2016-Nov-29 23:33N 39°48' W 075°25'0 0.0
2016-Nov-29 22:33N 39°48' W 075°25'0 0.0
2016-Nov-29 21:33N 39°48' W 075°25'0 0.1
2016-Nov-29 20:33N 39°48' W 075°25'0 0.0
2016-Nov-29 19:33N 39°48' W 075°25'0 0.2
2016-Nov-29 18:33N 39°48' W 075°25'0 0.1
2016-Nov-29 17:33N 39°48' W 075°25'0 0.0
2016-Nov-29 16:33N 39°48' W 075°25'0 0.0
2016-Nov-29 15:33N 39°48' W 075°25'0 0.0
2016-Nov-29 14:33N 39°48' W 075°25'0 0.0
2016-Nov-29 13:33N 39°48' W 075°25'0 0.2
2016-Nov-29 12:33N 39°48' W 075°25'0 0.0
2016-Nov-29 11:33N 39°48' W 075°25'0 0.0
2016-Nov-29 10:33N 39°48' W 075°25'0 0.0
2016-Nov-29 09:33N 39°48' W 075°25'0 0.0
2016-Nov-29 08:33N 39°48' W 075°25'0 0.1
2016-Nov-29 07:33N 39°48' W 075°25'0 0.0
2016-Nov-29 06:33N 39°48' W 075°25'0 0.2
2016-Nov-29 05:33N 39°48' W 075°25'0 0.0
2016-Nov-29 04:33N 39°48' W 075°25'0 0.0
2016-Nov-29 03:33N 39°48' W 075°25'0 0.0
2016-Nov-29 02:33N 39°48' W 075°25'0 0.0
2016-Nov-29 01:33N 39°48' W 075°25'7 7.2
2016-Nov-29 00:33N 39°51' W 075°17'5 4.5
2016-Nov-28 23:33N 39°53' W 075°12'1 0.6
2016-Nov-28 22:33N 39°54' W 075°12'0 0.0
2016-Nov-28 21:33N 39°54' W 075°12'0 0.0
2016-Nov-28 20:33N 39°54' W 075°12'0 0.0
2016-Nov-28 19:33N 39°54' W 075°12'0 0.0
2016-Nov-28 18:33N 39°54' W 075°12'0 0.0
2016-Nov-28 17:33N 39°54' W 075°12'0 0.0
2016-Nov-28 16:33N 39°54' W 075°12'1 0.6
2016-Nov-28 15:33N 39°53' W 075°12'9 9.4
2016-Nov-28 14:33N 39°49' W 075°23'1111.1
2016-Nov-28 13:33N 39°41' W 075°31'9 8.7
2016-Nov-28 12:33N 39°33' W 075°37'1010.4
2016-Nov-28 11:33N 39°32' W 075°51'1010.0
2016-Nov-28 10:33N 39°26' W 076°01'4 3.9
2016-Nov-28 09:33N 39°23' W 076°05'8 7.8
2016-Nov-28 08:33N 39°29' W 075°57'8 8.5
2016-Nov-28 07:33N 39°32' W 075°47'9 8.9
2016-Nov-28 06:33N 39°33' W 075°36'7 7.2
2016-Nov-28 05:33N 39°40' W 075°32'9 8.7
2016-Nov-28 04:33N 39°48' W 075°27'7 7.4
2016-Nov-28 03:33N 39°51' W 075°18'5 5.1
2016-Nov-28 02:33N 39°54' W 075°12'0 0.0
2016-Nov-28 01:33N 39°54' W 075°12'0 0.0
2016-Nov-28 00:33N 39°54' W 075°12'0 0.1
2016-Nov-27 23:33N 39°54' W 075°12'0 0.0
2016-Nov-27 22:33N 39°54' W 075°12'0 0.1
2016-Nov-27 21:33N 39°54' W 075°12'6 5.8
2016-Nov-27 20:33N 39°51' W 075°19'7 7.0
2016-Nov-27 19:33N 39°47' W 075°27'5 5.5
2016-Nov-27 18:33N 39°43' W 075°31'0 0.0
2016-Nov-27 17:33N 39°43' W 075°31'0 0.0
2016-Nov-27 16:33N 39°43' W 075°31'  

Dump ship's entire track history